Greenville, NC

12:31 AM EDT on September 21, 2014 (GMT -0400)
ECU Main Campus | Change Station
CLOSE
Current Station
Personal Weather Station
Location: Greenville, NC
Elevation: 59 ft
Nearby Weather Stations

Elev 59 ft 35.61 °N, 77.37 °W | Updated 41 seconds ago

Light Rain
Light Rain
69.1 °F
Feels Like 69.1 °F
N
0.0
Wind Variable Wind from North
Gusts 1.0 mph

Today
High -- | Low -- °F
--% Chance of Precip.
Yesterday
High -- | Low -- °F
Precip. -- in
6:56 AM 7:07 PM
Waning Crescent, 9% visible
Pressure 29.97 in
Visibility 10.0 miles
Clouds Mostly Cloudy 900 ft
Dew Point 67 °F
Humidity 92%
Rainfall 0.00 in
Snow Depth Not available.
UV 0.0 out of 12
Pollen 6.00 out of 12
Air Quality Not available.
Flu Activity Not available.
METAR KPGV 210350Z AUTO 01004KT 10SM -RA BKN009 20/20 A2997 RMK AO2 P0001

More Conditions Fewer Conditions

Pressure 29.97 in
Visibility 10.0 miles
Clouds Mostly Cloudy 900 ft
Dew Point 67 °F
Humidity 92%
Rainfall 0.00 in
Snow Depth Not available.
UV 0.0 out of 12
Pollen 6.00 out of 12
Air Quality Not available.
Flu Activity Not available.
METAR KPGV 210350Z AUTO 01004KT 10SM -RA BKN009 20/20 A2997 RMK AO2 P0001

More Conditions Fewer Conditions

10-Day Weather Forecast

Almanac

Astronomy

Sep. 21, 2014 Rise Set
Actual Time 6:56 AM EDT 7:07 PM EDT
Civil Twilight 6:31 AM EDT 7:33 PM EDT
Nautical Twilight 6:01 AM EDT 8:02 PM EDT
Astronomical Twilight 5:31 AM EDT 8:33 PM EDT
Moon 4:32 AM EDT 5:39 PM EDT
Length of Visible Light 13h 02m
Length of Day
12h 11m
Tomorrow will be 2m 14s shorter.
Waning Crescent, 9% of the Moon is Illuminated
Today
Waning Crescent
Sep 24
New
Oct 1
First Quarter
Oct 8
Full
Oct 15
Last Quarter

Yesterday's Extremes

State Highs State Lows

Community

WunderPhotos

Upload Photos

1,755,081 photos uploaded!

Nearby

Snow Depth

Station Depth Elevation
No new snow has been reported.

Earthquake Activity

City Distance Mag. Time & Date
No recent earthquake activity has been reported nearby.
Minimum magnitude displayed is 2.5.

Coastal Water Temperatures

Place Temperature
No Stations Reporting

Nearby Weather Stations